sensor_id;sensor_type;location;lat;lon;timestamp;pressure;altitude;pressure_sealevel;temperature;humidity
77165;BME280;66140;50.280;18.660;2023-03-23T05:01:24;98477.19;;;7.80;83.80
77165;BME280;66140;50.280;18.660;2023-03-23T05:04:09;98473.50;;;7.82;84.03
77165;BME280;66140;50.280;18.660;2023-03-23T05:06:35;98476.91;;;7.84;83.70
77165;BME280;66140;50.280;18.660;2023-03-23T05:09:01;98481.16;;;7.87;83.56
77165;BME280;66140;50.280;18.660;2023-03-23T05:11:26;98474.06;;;7.87;83.99
77165;BME280;66140;50.280;18.660;2023-03-23T05:13:52;98478.69;;;7.98;83.45
77165;BME280;66140;50.280;18.660;2023-03-23T05:16:17;98474.97;;;8.00;83.54
77165;BME280;66140;50.280;18.660;2023-03-23T05:18:43;98477.06;;;8.10;83.30
77165;BME280;66140;50.280;18.660;2023-03-23T05:21:10;98473.56;;;8.09;83.05
77165;BME280;66140;50.280;18.660;2023-03-23T05:23:35;98472.78;;;8.21;82.62
77165;BME280;66140;50.280;18.660;2023-03-23T05:26:01;98479.75;;;8.36;82.01
77165;BME280;66140;50.280;18.660;2023-03-23T05:28:27;98477.91;;;8.51;81.31
77165;BME280;66140;50.280;18.660;2023-03-23T05:30:54;98472.09;;;8.59;80.56
77165;BME280;66140;50.280;18.660;2023-03-23T05:33:21;98479.44;;;8.68;80.49
77165;BME280;66140;50.280;18.660;2023-03-23T05:35:47;98492.59;;;8.82;79.50
77165;BME280;66140;50.280;18.660;2023-03-23T05:38:13;98494.84;;;8.88;79.43
77165;BME280;66140;50.280;18.660;2023-03-23T05:40:40;98495.91;;;8.98;78.98
77165;BME280;66140;50.280;18.660;2023-03-23T05:43:07;98494.78;;;9.02;78.50
77165;BME280;66140;50.280;18.660;2023-03-23T05:45:33;98493.28;;;9.11;78.02
77165;BME280;66140;50.280;18.660;2023-03-23T05:47:59;98504.53;;;9.14;78.18
77165;BME280;66140;50.280;18.660;2023-03-23T05:50:25;98504.00;;;9.22;78.37
77165;BME280;66140;50.280;18.660;2023-03-23T05:52:51;98490.03;;;9.20;77.80
77165;BME280;66140;50.280;18.660;2023-03-23T05:55:47;98484.41;;;9.24;77.80
77165;BME280;66140;50.280;18.660;2023-03-23T05:58:33;98484.09;;;9.29;77.87
77165;BME280;66140;50.280;18.660;2023-03-23T06:01:06;98499.25;;;9.40;77.28
77165;BME280;66140;50.280;18.660;2023-03-23T06:03:44;98505.50;;;9.51;77.33
77165;BME280;66140;50.280;18.660;2023-03-23T06:06:14;98505.41;;;9.53;77.08
77165;BME280;66140;50.280;18.660;2023-03-23T06:08:39;98487.81;;;9.52;76.68
77165;BME280;66140;50.280;18.660;2023-03-23T06:11:05;98490.56;;;9.63;76.92
77165;BME280;66140;50.280;18.660;2023-03-23T06:13:31;98481.88;;;9.61;76.01
77165;BME280;66140;50.280;18.660;2023-03-23T06:15:57;98482.00;;;9.72;75.92
77165;BME280;66140;50.280;18.660;2023-03-23T06:18:23;98488.44;;;9.81;75.79
77165;BME280;66140;50.280;18.660;2023-03-23T06:20:49;98488.00;;;9.87;75.60
77165;BME280;66140;50.280;18.660;2023-03-23T06:23:16;98479.31;;;9.85;74.84
77165;BME280;66140;50.280;18.660;2023-03-23T06:25:41;98493.25;;;9.99;74.91
77165;BME280;66140;50.280;18.660;2023-03-23T06:28:07;98488.19;;;9.96;75.00
77165;BME280;66140;50.280;18.660;2023-03-23T06:30:34;98477.69;;;9.95;74.96
77165;BME280;66140;50.280;18.660;2023-03-23T06:33:00;98485.22;;;10.01;75.32
77165;BME280;66140;50.280;18.660;2023-03-23T06:35:27;98470.91;;;10.03;75.34
77165;BME280;66140;50.280;18.660;2023-03-23T06:37:52;98481.78;;;10.12;75.08
77165;BME280;66140;50.280;18.660;2023-03-23T06:40:19;98489.38;;;10.18;75.07
77165;BME280;66140;50.280;18.660;2023-03-23T06:42:46;98469.09;;;10.17;74.97
77165;BME280;66140;50.280;18.660;2023-03-23T06:45:11;98483.28;;;10.28;74.13
77165;BME280;66140;50.280;18.660;2023-03-23T06:47:37;98478.13;;;10.38;74.48
77165;BME280;66140;50.280;18.660;2023-03-23T06:50:04;98475.16;;;10.42;74.29
77165;BME280;66140;50.280;18.660;2023-03-23T06:52:29;98481.59;;;10.51;74.15
77165;BME280;66140;50.280;18.660;2023-03-23T06:54:55;98482.31;;;10.53;74.10
77165;BME280;66140;50.280;18.660;2023-03-23T06:57:20;98488.03;;;10.60;73.70
77165;BME280;66140;50.280;18.660;2023-03-23T06:59:46;98495.88;;;10.61;73.75
77165;BME280;66140;50.280;18.660;2023-03-23T07:02:13;98492.03;;;10.65;73.59
77165;BME280;66140;50.280;18.660;2023-03-23T07:04:42;98494.22;;;10.71;73.33
77165;BME280;66140;50.280;18.660;2023-03-23T07:07:09;98513.94;;;10.80;72.48
77165;BME280;66140;50.280;18.660;2023-03-23T07:09:36;98501.63;;;10.79;72.76
77165;BME280;66140;50.280;18.660;2023-03-23T07:12:02;98499.19;;;10.76;72.32
77165;BME280;66140;50.280;18.660;2023-03-23T07:14:28;98500.03;;;10.76;72.78
77165;BME280;66140;50.280;18.660;2023-03-23T07:16:53;98499.81;;;10.79;73.26
77165;BME280;66140;50.280;18.660;2023-03-23T07:19:19;98503.22;;;10.81;72.62
77165;BME280;66140;50.280;18.660;2023-03-23T07:21:44;98494.06;;;10.85;72.52
77165;BME280;66140;50.280;18.660;2023-03-23T07:24:11;98513.53;;;10.97;72.65
77165;BME280;66140;50.280;18.660;2023-03-23T07:26:41;98500.50;;;10.94;72.56
77165;BME280;66140;50.280;18.660;2023-03-23T07:29:08;98510.50;;;11.02;72.24
77165;BME280;66140;50.280;18.660;2023-03-23T07:31:33;98510.50;;;11.02;73.27
77165;BME280;66140;50.280;18.660;2023-03-23T07:33:59;98522.88;;;11.14;72.19
77165;BME280;66140;50.280;18.660;2023-03-23T07:36:25;98505.28;;;11.13;71.74
77165;BME280;66140;50.280;18.660;2023-03-23T07:38:51;98520.03;;;11.28;71.16
77165;BME280;66140;50.280;18.660;2023-03-23T07:41:17;98516.44;;;11.40;70.42
77165;BME280;66140;50.280;18.660;2023-03-23T07:43:42;98517.19;;;11.53;69.70
77165;BME280;66140;50.280;18.660;2023-03-23T07:46:08;98518.41;;;11.60;68.76
77165;BME280;66140;50.280;18.660;2023-03-23T07:48:33;98508.03;;;11.69;68.75
77165;BME280;66140;50.280;18.660;2023-03-23T07:50:59;98503.97;;;11.87;68.58
77165;BME280;66140;50.280;18.660;2023-03-23T07:53:24;98510.09;;;12.43;66.81
77165;BME280;66140;50.280;18.660;2023-03-23T07:55:50;98515.09;;;13.11;64.88
77165;BME280;66140;50.280;18.660;2023-03-23T07:58:16;98504.84;;;13.69;62.62
77165;BME280;66140;50.280;18.660;2023-03-23T08:00:44;98516.72;;;13.86;61.74
77165;BME280;66140;50.280;18.660;2023-03-23T08:03:10;98514.28;;;14.03;62.13
77165;BME280;66140;50.280;18.660;2023-03-23T08:05:36;98500.56;;;14.08;60.87
77165;BME280;66140;50.280;18.660;2023-03-23T08:08:02;98499.72;;;14.08;61.32
77165;BME280;66140;50.280;18.660;2023-03-23T08:10:27;98508.22;;;14.32;60.55
77165;BME280;66140;50.280;18.660;2023-03-23T08:12:55;98500.00;;;14.54;59.26
77165;BME280;66140;50.280;18.660;2023-03-23T08:15:22;98495.13;;;14.59;59.71
77165;BME280;66140;50.280;18.660;2023-03-23T08:17:49;98491.19;;;14.63;59.30
77165;BME280;66140;50.280;18.660;2023-03-23T08:20:16;98493.81;;;14.54;58.87
77165;BME280;66140;50.280;18.660;2023-03-23T08:22:44;98495.56;;;14.34;58.41
77165;BME280;66140;50.280;18.660;2023-03-23T08:25:11;98500.91;;;14.34;59.54
77165;BME280;66140;50.280;18.660;2023-03-23T08:27:37;98483.78;;;14.27;59.50
77165;BME280;66140;50.280;18.660;2023-03-23T08:30:09;98487.22;;;14.48;59.55
77165;BME280;66140;50.280;18.660;2023-03-23T08:32:35;98478.66;;;14.73;59.70
77165;BME280;66140;50.280;18.660;2023-03-23T08:35:01;98460.84;;;15.03;58.33
77165;BME280;66140;50.280;18.660;2023-03-23T08:37:28;98477.13;;;15.38;58.66
77165;BME280;66140;50.280;18.660;2023-03-23T08:39:54;98469.47;;;15.72;56.75
77165;BME280;66140;50.280;18.660;2023-03-23T08:42:20;98466.09;;;16.07;56.17
77165;BME280;66140;50.280;18.660;2023-03-23T08:44:47;98470.72;;;16.42;54.83
77165;BME280;66140;50.280;18.660;2023-03-23T08:47:13;98465.97;;;16.54;54.15
77165;BME280;66140;50.280;18.660;2023-03-23T08:49:39;98462.50;;;16.71;53.59
77165;BME280;66140;50.280;18.660;2023-03-23T08:52:05;98467.81;;;16.98;52.42
77165;BME280;66140;50.280;18.660;2023-03-23T08:54:30;98467.78;;;17.16;52.25
77165;BME280;66140;50.280;18.660;2023-03-23T08:56:59;98461.06;;;17.12;51.23
77165;BME280;66140;50.280;18.660;2023-03-23T08:59:25;98449.19;;;17.14;50.43
77165;BME280;66140;50.280;18.660;2023-03-23T09:01:51;98470.81;;;16.95;51.52
77165;BME280;66140;50.280;18.660;2023-03-23T09:04:17;98465.66;;;16.84;51.25
77165;BME280;66140;50.280;18.660;2023-03-23T09:06:43;98458.59;;;16.65;51.08
77165;BME280;66140;50.280;18.660;2023-03-23T09:09:09;98472.75;;;16.58;51.10
77165;BME280;66140;50.280;18.660;2023-03-23T09:11:36;98486.13;;;16.30;53.09
77165;BME280;66140;50.280;18.660;2023-03-23T09:14:03;98482.25;;;16.15;52.12
77165;BME280;66140;50.280;18.660;2023-03-23T09:16:29;98496.81;;;16.03;53.02
77165;BME280;66140;50.280;18.660;2023-03-23T09:18:55;98493.44;;;16.01;52.03
77165;BME280;66140;50.280;18.660;2023-03-23T09:21:23;98488.34;;;16.08;53.19
77165;BME280;66140;50.280;18.660;2023-03-23T09:23:49;98492.88;;;16.34;52.04
77165;BME280;66140;50.280;18.660;2023-03-23T09:26:14;98497.25;;;16.63;50.32
77165;BME280;66140;50.280;18.660;2023-03-23T09:28:40;98484.72;;;16.63;51.88
77165;BME280;66140;50.280;18.660;2023-03-23T09:31:06;98484.88;;;16.79;50.55
77165;BME280;66140;50.280;18.660;2023-03-23T09:33:31;98485.81;;;16.88;50.05
77165;BME280;66140;50.280;18.660;2023-03-23T09:36:00;98484.25;;;17.03;50.37
77165;BME280;66140;50.280;18.660;2023-03-23T09:38:27;98483.97;;;17.06;49.31
77165;BME280;66140;50.280;18.660;2023-03-23T09:41:01;98473.69;;;17.19;49.20
77165;BME280;66140;50.280;18.660;2023-03-23T09:44:01;98476.28;;;17.11;49.04
77165;BME280;66140;50.280;18.660;2023-03-23T09:49:07;98474.94;;;16.90;47.90
77165;BME280;66140;50.280;18.660;2023-03-23T09:54:43;98465.72;;;16.92;47.93
77165;BME280;66140;50.280;18.660;2023-03-23T09:57:22;98452.28;;;17.02;48.30
77165;BME280;66140;50.280;18.660;2023-03-23T10:05:23;98436.69;;;17.49;48.28
77165;BME280;66140;50.280;18.660;2023-03-23T10:07:50;98452.22;;;17.37;47.77
77165;BME280;66140;50.280;18.660;2023-03-23T10:10:16;98441.97;;;17.33;46.75
77165;BME280;66140;50.280;18.660;2023-03-23T10:12:57;98430.53;;;17.31;47.07
77165;BME280;66140;50.280;18.660;2023-03-23T10:15:32;98458.69;;;17.27;46.16
77165;BME280;66140;50.280;18.660;2023-03-23T10:18:15;98447.34;;;16.97;47.06
77165;BME280;66140;50.280;18.660;2023-03-23T10:20:50;98454.25;;;16.82;47.82
77165;BME280;66140;50.280;18.660;2023-03-23T10:26:06;98455.25;;;16.54;48.98
77165;BME280;66140;50.280;18.660;2023-03-23T10:28:43;98453.91;;;16.50;48.37
77165;BME280;66140;50.280;18.660;2023-03-23T10:31:23;98456.25;;;16.53;48.42
77165;BME280;66140;50.280;18.660;2023-03-23T10:33:52;98452.50;;;16.45;49.18
77165;BME280;66140;50.280;18.660;2023-03-23T10:36:38;98447.94;;;16.28;49.66
77165;BME280;66140;50.280;18.660;2023-03-23T10:39:23;98459.22;;;16.04;49.81
77165;BME280;66140;50.280;18.660;2023-03-23T10:41:49;98460.34;;;16.02;50.35
77165;BME280;66140;50.280;18.660;2023-03-23T10:44:22;98454.59;;;15.97;49.98
77165;BME280;66140;50.280;18.660;2023-03-23T10:46:58;98462.09;;;15.93;50.42
77165;BME280;66140;50.280;18.660;2023-03-23T10:49:54;98462.38;;;15.90;50.38
77165;BME280;66140;50.280;18.660;2023-03-23T10:52:39;98456.69;;;16.03;51.02
77165;BME280;66140;50.280;18.660;2023-03-23T10:55:12;98445.69;;;16.06;50.68
77165;BME280;66140;50.280;18.660;2023-03-23T10:58:01;98450.19;;;16.06;50.50
77165;BME280;66140;50.280;18.660;2023-03-23T11:00:27;98465.81;;;16.10;51.05
77165;BME280;66140;50.280;18.660;2023-03-23T11:03:06;98462.34;;;16.00;51.04
77165;BME280;66140;50.280;18.660;2023-03-23T11:05:40;98465.28;;;15.97;51.16
77165;BME280;66140;50.280;18.660;2023-03-23T11:08:14;98457.56;;;15.94;51.86
77165;BME280;66140;50.280;18.660;2023-03-23T11:10:49;98452.38;;;15.92;51.46
77165;BME280;66140;50.280;18.660;2023-03-23T11:13:17;98455.31;;;15.89;52.15
77165;BME280;66140;50.280;18.660;2023-03-23T11:15:44;98452.69;;;15.80;52.46
77165;BME280;66140;50.280;18.660;2023-03-23T11:18:35;98462.94;;;15.84;51.90
77165;BME280;66140;50.280;18.660;2023-03-23T11:21:03;98462.38;;;15.90;52.98
77165;BME280;66140;50.280;18.660;2023-03-23T11:28:42;98454.78;;;16.13;52.17
77165;BME280;66140;50.280;18.660;2023-03-23T11:31:09;98452.22;;;16.21;51.07
77165;BME280;66140;50.280;18.660;2023-03-23T11:36:14;98443.06;;;16.24;52.09
77165;BME280;66140;50.280;18.660;2023-03-23T11:38:40;98453.63;;;16.25;50.34
77165;BME280;66140;50.280;18.660;2023-03-23T11:41:16;98451.66;;;16.45;50.24
77165;BME280;66140;50.280;18.660;2023-03-23T11:43:46;98433.13;;;16.52;50.64
77165;BME280;66140;50.280;18.660;2023-03-23T11:46:25;98450.75;;;16.64;50.98
77165;BME280;66140;50.280;18.660;2023-03-23T11:49:07;98442.38;;;16.67;50.48
77165;BME280;66140;50.280;18.660;2023-03-23T11:51:53;98447.50;;;16.78;50.36
77165;BME280;66140;50.280;18.660;2023-03-23T11:54:55;98449.28;;;16.87;50.04
77165;BME280;66140;50.280;18.660;2023-03-23T11:57:22;98433.91;;;16.89;50.07
77165;BME280;66140;50.280;18.660;2023-03-23T11:59:49;98443.59;;;16.90;49.48
77165;BME280;66140;50.280;18.660;2023-03-23T12:05:31;98436.84;;;17.04;50.39
77165;BME280;66140;50.280;18.660;2023-03-23T12:36:08;98427.97;;;17.21;49.37
77165;BME280;66140;50.280;18.660;2023-03-23T12:41:16;98411.34;;;17.43;49.34
77165;BME280;66140;50.280;18.660;2023-03-23T12:44:00;98415.16;;;17.58;49.36
77165;BME280;66140;50.280;18.660;2023-03-23T12:49:17;98422.75;;;17.63;49.26
77165;BME280;66140;50.280;18.660;2023-03-23T12:51:51;98414.94;;;17.52;49.67
77165;BME280;66140;50.280;18.660;2023-03-23T12:54:42;98422.84;;;17.36;49.66
77165;BME280;66140;50.280;18.660;2023-03-23T12:57:30;98426.44;;;17.18;50.00
77165;BME280;66140;50.280;18.660;2023-03-23T13:00:12;98422.38;;;16.97;50.66
77165;BME280;66140;50.280;18.660;2023-03-23T13:02:44;98423.19;;;16.89;51.09
77165;BME280;66140;50.280;18.660;2023-03-23T13:05:35;98413.69;;;16.77;51.80
77165;BME280;66140;50.280;18.660;2023-03-23T13:08:14;98406.25;;;16.89;51.54
77165;BME280;66140;50.280;18.660;2023-03-23T13:10:49;98400.44;;;16.93;50.81
77165;BME280;66140;50.280;18.660;2023-03-23T13:13:19;98413.72;;;17.03;50.65
77165;BME280;66140;50.280;18.660;2023-03-23T13:23:47;98383.06;;;17.49;48.95
77165;BME280;66140;50.280;18.660;2023-03-23T13:26:18;98382.41;;;17.55;48.60
77165;BME280;66140;50.280;18.660;2023-03-23T13:31:28;98371.47;;;17.48;48.16
77165;BME280;66140;50.280;18.660;2023-03-23T13:36:38;98377.03;;;17.55;48.44
77165;BME280;66140;50.280;18.660;2023-03-23T13:39:06;98370.19;;;17.52;48.52
77165;BME280;66140;50.280;18.660;2023-03-23T13:41:59;98364.75;;;17.44;48.74
77165;BME280;66140;50.280;18.660;2023-03-23T13:44:39;98367.09;;;17.39;48.31
77165;BME280;66140;50.280;18.660;2023-03-23T13:50:00;98369.28;;;17.44;48.02
77165;BME280;66140;50.280;18.660;2023-03-23T13:52:46;98370.75;;;17.38;48.33
77165;BME280;66140;50.280;18.660;2023-03-23T13:57:55;98371.06;;;17.35;48.80
77165;BME280;66140;50.280;18.660;2023-03-23T14:05:44;98375.59;;;17.35;49.19
77165;BME280;66140;50.280;18.660;2023-03-23T14:13:30;98377.28;;;17.36;49.16
77165;BME280;66140;50.280;18.660;2023-03-23T14:16:13;98379.94;;;17.36;49.75
77165;BME280;66140;50.280;18.660;2023-03-23T14:18:40;98370.97;;;17.45;49.08
77165;BME280;66140;50.280;18.660;2023-03-23T14:21:15;98351.34;;;17.44;48.88
77165;BME280;66140;50.280;18.660;2023-03-23T14:23:42;98353.91;;;17.54;48.52
77165;BME280;66140;50.280;18.660;2023-03-23T14:26:26;98372.22;;;17.58;48.44
77165;BME280;66140;50.280;18.660;2023-03-23T14:28:53;98364.81;;;17.52;48.98
77165;BME280;66140;50.280;18.660;2023-03-23T14:33:47;98347.47;;;17.39;48.93
77165;BME280;66140;50.280;18.660;2023-03-23T14:36:24;98354.13;;;17.35;50.77
77165;BME280;66140;50.280;18.660;2023-03-23T14:39:26;98344.00;;;17.20;50.49
77165;BME280;66140;50.280;18.660;2023-03-23T14:42:00;98353.34;;;17.16;49.02
77165;BME280;66140;50.280;18.660;2023-03-23T14:44:30;98342.97;;;17.13;49.81
77165;BME280;66140;50.280;18.660;2023-03-23T14:47:00;98363.72;;;17.11;49.74
77165;BME280;66140;50.280;18.660;2023-03-23T14:49:31;98371.53;;;17.05;50.71
77165;BME280;66140;50.280;18.660;2023-03-23T14:52:13;98359.75;;;16.98;50.41
77165;BME280;66140;50.280;18.660;2023-03-23T14:54:40;98376.38;;;17.01;50.08
77165;BME280;66140;50.280;18.660;2023-03-23T14:59:51;98367.13;;;16.78;51.31
77165;BME280;66140;50.280;18.660;2023-03-23T15:02:33;98377.19;;;16.76;51.78
77165;BME280;66140;50.280;18.660;2023-03-23T15:05:15;98370.06;;;16.67;51.02
77165;BME280;66140;50.280;18.660;2023-03-23T15:07:53;98365.31;;;16.61;51.27
77165;BME280;66140;50.280;18.660;2023-03-23T15:10:23;98372.63;;;16.59;51.19
77165;BME280;66140;50.280;18.660;2023-03-23T15:12:49;98362.22;;;16.56;51.81
77165;BME280;66140;50.280;18.660;2023-03-23T15:15:31;98357.34;;;16.51;51.97
77165;BME280;66140;50.280;18.660;2023-03-23T15:17:57;98363.50;;;16.52;51.71
77165;BME280;66140;50.280;18.660;2023-03-23T15:20:32;98347.69;;;16.40;52.54
77165;BME280;66140;50.280;18.660;2023-03-23T15:23:15;98359.09;;;16.42;52.22
77165;BME280;66140;50.280;18.660;2023-03-23T15:25:49;98365.44;;;16.41;52.88
77165;BME280;66140;50.280;18.660;2023-03-23T15:30:50;98357.78;;;16.29;52.97
77165;BME280;66140;50.280;18.660;2023-03-23T15:33:17;98359.09;;;16.25;53.68
77165;BME280;66140;50.280;18.660;2023-03-23T15:35:49;98364.25;;;16.26;53.31
77165;BME280;66140;50.280;18.660;2023-03-23T15:38:21;98358.28;;;16.15;53.67
77165;BME280;66140;50.280;18.660;2023-03-23T15:40:52;98358.59;;;16.12;54.07
77165;BME280;66140;50.280;18.660;2023-03-23T15:43:21;98360.72;;;16.08;55.23
77165;BME280;66140;50.280;18.660;2023-03-23T15:48:51;98364.16;;;16.00;56.37
77165;BME280;66140;50.280;18.660;2023-03-23T15:51:18;98368.97;;;15.97;55.88
77165;BME280;66140;50.280;18.660;2023-03-23T15:53:45;98361.22;;;15.94;56.34
77165;BME280;66140;50.280;18.660;2023-03-23T15:56:12;98355.41;;;15.81;56.93
77165;BME280;66140;50.280;18.660;2023-03-23T15:58:39;98370.03;;;15.86;56.95
77165;BME280;66140;50.280;18.660;2023-03-23T16:01:10;98375.97;;;15.80;58.12
77165;BME280;66140;50.280;18.660;2023-03-23T16:06:27;98367.59;;;15.66;60.25
77165;BME280;66140;50.280;18.660;2023-03-23T16:08:55;98369.28;;;15.67;61.43
77165;BME280;66140;50.280;18.660;2023-03-23T16:11:21;98368.16;;;15.59;62.03
77165;BME280;66140;50.280;18.660;2023-03-23T16:13:47;98379.16;;;15.47;61.82
77165;BME280;66140;50.280;18.660;2023-03-23T16:16:16;98370.75;;;15.32;61.88
77165;BME280;66140;50.280;18.660;2023-03-23T16:18:43;98367.13;;;15.23;62.78
77165;BME280;66140;50.280;18.660;2023-03-23T16:21:09;98376.44;;;15.19;62.83
77165;BME280;66140;50.280;18.660;2023-03-23T16:23:35;98391.63;;;15.19;62.60
77165;BME280;66140;50.280;18.660;2023-03-23T16:26:00;98388.81;;;15.11;62.93
77165;BME280;66140;50.280;18.660;2023-03-23T16:28:26;98385.47;;;15.09;63.04
77165;BME280;66140;50.280;18.660;2023-03-23T16:30:54;98396.41;;;15.06;63.66
77165;BME280;66140;50.280;18.660;2023-03-23T16:33:19;98404.03;;;15.01;62.80
77165;BME280;66140;50.280;18.660;2023-03-23T16:35:45;98404.47;;;14.96;62.91
77165;BME280;66140;50.280;18.660;2023-03-23T16:38:14;98397.28;;;14.87;63.88
77165;BME280;66140;50.280;18.660;2023-03-23T16:40:45;98405.16;;;14.89;63.49
77165;BME280;66140;50.280;18.660;2023-03-23T16:43:11;98393.09;;;14.84;62.25
77165;BME280;66140;50.280;18.660;2023-03-23T16:45:40;98381.84;;;14.81;62.58
77165;BME280;66140;50.280;18.660;2023-03-23T16:48:06;98387.59;;;14.76;63.00
77165;BME280;66140;50.280;18.660;2023-03-23T16:50:33;98397.31;;;14.77;63.85
77165;BME280;66140;50.280;18.660;2023-03-23T16:52:59;98397.56;;;14.74;64.11
77165;BME280;66140;50.280;18.660;2023-03-23T16:55:25;98384.94;;;14.67;63.75
77165;BME280;66140;50.280;18.660;2023-03-23T16:57:51;98392.38;;;14.63;64.80
77165;BME280;66140;50.280;18.660;2023-03-23T17:00:18;98395.63;;;14.57;65.15
77165;BME280;66140;50.280;18.660;2023-03-23T17:02:49;98401.53;;;14.51;68.62
77165;BME280;66140;50.280;18.660;2023-03-23T17:05:20;98395.84;;;14.35;68.58
77165;BME280;66140;50.280;18.660;2023-03-23T17:07:57;98397.25;;;14.29;69.69
77165;BME280;66140;50.280;18.660;2023-03-23T17:10:25;98398.75;;;14.13;71.20
77165;BME280;66140;50.280;18.660;2023-03-23T17:12:54;98398.88;;;14.01;73.23
77165;BME280;66140;50.280;18.660;2023-03-23T17:15:20;98407.16;;;13.98;73.12
77165;BME280;66140;50.280;18.660;2023-03-23T17:17:48;98415.69;;;13.92;71.98
77165;BME280;66140;50.280;18.660;2023-03-23T17:20:14;98417.09;;;13.87;71.04
77165;BME280;66140;50.280;18.660;2023-03-23T17:22:42;98416.66;;;13.82;72.42
77165;BME280;66140;50.280;18.660;2023-03-23T17:25:08;98419.84;;;13.76;71.72
77165;BME280;66140;50.280;18.660;2023-03-23T17:27:37;98397.06;;;13.62;72.71
77165;BME280;66140;50.280;18.660;2023-03-23T17:30:04;98397.31;;;13.59;73.19
77165;BME280;66140;50.280;18.660;2023-03-23T17:32:31;98396.75;;;13.55;71.90
77165;BME280;66140;50.280;18.660;2023-03-23T17:34:59;98400.66;;;13.51;71.35
77165;BME280;66140;50.280;18.660;2023-03-23T17:37:26;98394.03;;;13.46;71.50
77165;BME280;66140;50.280;18.660;2023-03-23T17:39:52;98393.34;;;13.44;72.56
77165;BME280;66140;50.280;18.660;2023-03-23T17:42:19;98405.09;;;13.41;70.62
77165;BME280;66140;50.280;18.660;2023-03-23T17:44:44;98417.56;;;13.41;70.59
77165;BME280;66140;50.280;18.660;2023-03-23T17:47:11;98404.78;;;13.35;71.54
77165;BME280;66140;50.280;18.660;2023-03-23T17:49:37;98406.16;;;13.29;71.33
77165;BME280;66140;50.280;18.660;2023-03-23T17:52:02;98417.91;;;13.27;72.71
77165;BME280;66140;50.280;18.660;2023-03-23T17:54:31;98428.56;;;13.27;72.80
77165;BME280;66140;50.280;18.660;2023-03-23T17:56:56;98425.91;;;13.27;73.02
77165;BME280;66140;50.280;18.660;2023-03-23T17:59:24;98422.53;;;13.24;73.10
77165;BME280;66140;50.280;18.660;2023-03-23T18:01:51;98405.63;;;13.14;72.67
77165;BME280;66140;50.280;18.660;2023-03-23T18:04:16;98431.06;;;13.18;71.84
77165;BME280;66140;50.280;18.660;2023-03-23T18:06:42;98438.06;;;13.19;72.58
77165;BME280;66140;50.280;18.660;2023-03-23T18:09:08;98433.97;;;13.15;73.12
77165;BME280;66140;50.280;18.660;2023-03-23T18:11:34;98447.03;;;13.18;73.77
77165;BME280;66140;50.280;18.660;2023-03-23T18:14:01;98447.28;;;13.15;74.13
77165;BME280;66140;50.280;18.660;2023-03-23T18:16:27;98444.38;;;13.07;74.23
77165;BME280;66140;50.280;18.660;2023-03-23T18:18:52;98443.81;;;13.04;74.27
77165;BME280;66140;50.280;18.660;2023-03-23T18:21:18;98437.63;;;13.03;74.13
77165;BME280;66140;50.280;18.660;2023-03-23T18:23:44;98452.38;;;13.07;74.52
77165;BME280;66140;50.280;18.660;2023-03-23T18:26:12;98448.03;;;13.06;73.90
77165;BME280;66140;50.280;18.660;2023-03-23T18:28:38;98438.03;;;12.99;73.73
77165;BME280;66140;50.280;18.660;2023-03-23T18:31:12;98440.31;;;13.03;73.31
77165;BME280;66140;50.280;18.660;2023-03-23T18:33:40;98439.06;;;13.07;73.72
77165;BME280;66140;50.280;18.660;2023-03-23T18:36:09;98438.22;;;13.07;72.28
77165;BME280;66140;50.280;18.660;2023-03-23T18:38:35;98425.75;;;13.07;71.33
77165;BME280;66140;50.280;18.660;2023-03-23T18:41:05;98425.25;;;13.13;70.65
77165;BME280;66140;50.280;18.660;2023-03-23T18:43:30;98435.88;;;13.24;70.92
77165;BME280;66140;50.280;18.660;2023-03-23T18:45:56;98440.50;;;13.32;68.77
77165;BME280;66140;50.280;18.660;2023-03-23T18:48:24;98434.81;;;13.37;69.37
77165;BME280;66140;50.280;18.660;2023-03-23T18:50:52;98429.81;;;13.43;68.77
77165;BME280;66140;50.280;18.660;2023-03-23T18:53:18;98442.19;;;13.54;68.42
77165;BME280;66140;50.280;18.660;2023-03-23T18:55:45;98424.06;;;13.48;68.78
77165;BME280;66140;50.280;18.660;2023-03-23T18:58:11;98423.34;;;13.46;68.94
77165;BME280;66140;50.280;18.660;2023-03-23T19:00:38;98428.31;;;13.50;68.84
77165;BME280;66140;50.280;18.660;2023-03-23T19:03:05;98435.28;;;13.51;69.32
77165;BME280;66140;50.280;18.660;2023-03-23T19:05:32;98439.78;;;13.51;69.57
77165;BME280;66140;50.280;18.660;2023-03-23T19:07:58;98436.66;;;13.46;68.70
77165;BME280;66140;50.280;18.660;2023-03-23T19:10:25;98442.72;;;13.48;70.39
77165;BME280;66140;50.280;18.660;2023-03-23T19:12:50;98428.22;;;13.41;70.11
77165;BME280;66140;50.280;18.660;2023-03-23T19:15:16;98424.16;;;13.37;71.21
77165;BME280;66140;50.280;18.660;2023-03-23T19:17:43;98414.03;;;13.31;70.44
77165;BME280;66140;50.280;18.660;2023-03-23T19:20:09;98423.88;;;13.40;69.79
77165;BME280;66140;50.280;18.660;2023-03-23T19:22:39;98430.91;;;13.41;70.39
77165;BME280;66140;50.280;18.660;2023-03-23T19:25:08;98436.22;;;13.41;69.41
77165;BME280;66140;50.280;18.660;2023-03-23T19:27:35;98441.97;;;13.36;70.60
77165;BME280;66140;50.280;18.660;2023-03-23T19:30:00;98460.50;;;13.38;69.34
77165;BME280;66140;50.280;18.660;2023-03-23T19:32:37;98454.44;;;13.36;69.43
77165;BME280;66140;50.280;18.660;2023-03-23T19:35:03;98458.41;;;13.41;70.29
77165;BME280;66140;50.280;18.660;2023-03-23T19:37:29;98458.50;;;13.40;69.01
77165;BME280;66140;50.280;18.660;2023-03-23T19:39:58;98455.84;;;13.40;69.46
77165;BME280;66140;50.280;18.660;2023-03-23T19:42:24;98447.66;;;13.32;69.83
77165;BME280;66140;50.280;18.660;2023-03-23T19:44:49;98465.53;;;13.41;69.68